sensor_id;sensor_type;location;lat;lon;timestamp;temperature;humidity
26803;DHT22;14378;51.796;5.808;2023-06-22T00:06:15;21.30;99.90
26803;DHT22;14378;51.796;5.808;2023-06-22T00:08:17;21.30;99.90
26803;DHT22;14378;51.796;5.808;2023-06-22T00:10:19;21.30;99.90
26803;DHT22;14378;51.796;5.808;2023-06-22T00:12:20;21.20;99.90
26803;DHT22;14378;51.796;5.808;2023-06-22T00:14:21;21.20;99.90
26803;DHT22;14378;51.796;5.808;2023-06-22T00:16:21;21.20;99.90
26803;DHT22;14378;51.796;5.808;2023-06-22T00:18:22;21.20;99.90
26803;DHT22;14378;51.796;5.808;2023-06-22T00:20:28;21.20;99.90
26803;DHT22;14378;51.796;5.808;2023-06-22T00:22:29;21.20;99.90
26803;DHT22;14378;51.796;5.808;2023-06-22T00:24:30;21.10;99.90
26803;DHT22;14378;51.796;5.808;2023-06-22T00:26:31;21.10;99.90
26803;DHT22;14378;51.796;5.808;2023-06-22T00:28:34;21.10;99.90
26803;DHT22;14378;51.796;5.808;2023-06-22T00:30:36;21.10;99.90
26803;DHT22;14378;51.796;5.808;2023-06-22T00:32:40;21.10;99.90
26803;DHT22;14378;51.796;5.808;2023-06-22T00:34:41;21.10;99.90
26803;DHT22;14378;51.796;5.808;2023-06-22T00:36:42;21.10;99.90
26803;DHT22;14378;51.796;5.808;2023-06-22T00:38:44;21.00;99.90
26803;DHT22;14378;51.796;5.808;2023-06-22T00:40:45;21.00;99.90
26803;DHT22;14378;51.796;5.808;2023-06-22T00:42:46;21.00;99.90
26803;DHT22;14378;51.796;5.808;2023-06-22T00:44:48;21.00;99.90
26803;DHT22;14378;51.796;5.808;2023-06-22T00:46:49;20.90;99.90
26803;DHT22;14378;51.796;5.808;2023-06-22T00:48:51;20.90;99.90
26803;DHT22;14378;51.796;5.808;2023-06-22T00:50:54;20.90;99.90
26803;DHT22;14378;51.796;5.808;2023-06-22T00:53:00;20.90;99.90
26803;DHT22;14378;51.796;5.808;2023-06-22T00:55:02;20.80;99.90
26803;DHT22;14378;51.796;5.808;2023-06-22T00:57:04;20.80;99.90
26803;DHT22;14378;51.796;5.808;2023-06-22T00:59:08;20.80;99.90
26803;DHT22;14378;51.796;5.808;2023-06-22T01:01:14;20.80;99.90
26803;DHT22;14378;51.796;5.808;2023-06-22T01:03:15;20.80;99.90
26803;DHT22;14378;51.796;5.808;2023-06-22T01:05:21;20.70;99.90
26803;DHT22;14378;51.796;5.808;2023-06-22T01:09:32;20.70;99.90
26803;DHT22;14378;51.796;5.808;2023-06-22T01:11:43;20.70;99.90
26803;DHT22;14378;51.796;5.808;2023-06-22T01:16:07;20.70;99.90
26803;DHT22;14378;51.796;5.808;2023-06-22T01:18:09;20.60;99.90
26803;DHT22;14378;51.796;5.808;2023-06-22T01:20:16;20.60;99.90
26803;DHT22;14378;51.796;5.808;2023-06-22T01:22:18;20.60;99.90
26803;DHT22;14378;51.796;5.808;2023-06-22T01:24:27;20.60;99.90
26803;DHT22;14378;51.796;5.808;2023-06-22T01:26:57;20.50;99.90
26803;DHT22;14378;51.796;5.808;2023-06-22T01:29:01;20.50;99.90
26803;DHT22;14378;51.796;5.808;2023-06-22T01:31:05;20.50;99.90
26803;DHT22;14378;51.796;5.808;2023-06-22T01:33:08;20.50;99.90
26803;DHT22;14378;51.796;5.808;2023-06-22T01:35:12;20.50;99.90
26803;DHT22;14378;51.796;5.808;2023-06-22T01:37:17;20.50;99.90
26803;DHT22;14378;51.796;5.808;2023-06-22T01:39:21;20.50;99.90
26803;DHT22;14378;51.796;5.808;2023-06-22T01:41:36;20.40;99.90
26803;DHT22;14378;51.796;5.808;2023-06-22T01:43:38;20.40;99.90
26803;DHT22;14378;51.796;5.808;2023-06-22T01:45:40;20.40;99.90
26803;DHT22;14378;51.796;5.808;2023-06-22T01:47:41;20.40;99.90
26803;DHT22;14378;51.796;5.808;2023-06-22T01:49:45;20.40;99.90
26803;DHT22;14378;51.796;5.808;2023-06-22T01:51:47;20.30;99.90
26803;DHT22;14378;51.796;5.808;2023-06-22T01:53:48;20.30;99.90
26803;DHT22;14378;51.796;5.808;2023-06-22T01:55:50;20.30;99.90
26803;DHT22;14378;51.796;5.808;2023-06-22T01:57:51;20.30;99.90
26803;DHT22;14378;51.796;5.808;2023-06-22T02:02:07;20.30;99.90
26803;DHT22;14378;51.796;5.808;2023-06-22T02:04:17;20.30;99.90
26803;DHT22;14378;51.796;5.808;2023-06-22T02:06:24;20.30;99.90
26803;DHT22;14378;51.796;5.808;2023-06-22T02:08:32;20.30;99.90
26803;DHT22;14378;51.796;5.808;2023-06-22T02:10:37;20.20;99.90
26803;DHT22;14378;51.796;5.808;2023-06-22T02:12:41;20.20;99.90
26803;DHT22;14378;51.796;5.808;2023-06-22T02:14:46;20.20;99.90
26803;DHT22;14378;51.796;5.808;2023-06-22T02:16:48;20.20;99.90
26803;DHT22;14378;51.796;5.808;2023-06-22T02:18:53;20.10;99.90
26803;DHT22;14378;51.796;5.808;2023-06-22T02:20:54;20.10;99.90
26803;DHT22;14378;51.796;5.808;2023-06-22T02:22:57;20.10;99.90
26803;DHT22;14378;51.796;5.808;2023-06-22T02:24:58;20.10;99.90
26803;DHT22;14378;51.796;5.808;2023-06-22T02:27:00;20.10;99.90
26803;DHT22;14378;51.796;5.808;2023-06-22T02:29:02;20.10;99.90
26803;DHT22;14378;51.796;5.808;2023-06-22T02:31:03;20.10;99.90
26803;DHT22;14378;51.796;5.808;2023-06-22T02:33:06;20.10;99.90
26803;DHT22;14378;51.796;5.808;2023-06-22T02:35:08;20.10;99.90
26803;DHT22;14378;51.796;5.808;2023-06-22T02:37:09;20.10;99.90
26803;DHT22;14378;51.796;5.808;2023-06-22T02:39:15;20.10;99.90
26803;DHT22;14378;51.796;5.808;2023-06-22T02:41:16;20.10;99.90
26803;DHT22;14378;51.796;5.808;2023-06-22T02:43:20;20.10;99.90
26803;DHT22;14378;51.796;5.808;2023-06-22T02:45:21;20.00;99.90
26803;DHT22;14378;51.796;5.808;2023-06-22T02:47:22;20.10;99.90
26803;DHT22;14378;51.796;5.808;2023-06-22T02:49:23;20.00;99.90
26803;DHT22;14378;51.796;5.808;2023-06-22T02:51:24;20.00;99.90
26803;DHT22;14378;51.796;5.808;2023-06-22T02:53:25;20.10;99.90
26803;DHT22;14378;51.796;5.808;2023-06-22T02:55:26;20.10;99.90
26803;DHT22;14378;51.796;5.808;2023-06-22T02:57:31;20.00;99.90
26803;DHT22;14378;51.796;5.808;2023-06-22T02:59:32;20.00;99.90
26803;DHT22;14378;51.796;5.808;2023-06-22T03:01:39;20.00;99.90
26803;DHT22;14378;51.796;5.808;2023-06-22T03:03:46;20.00;99.90
26803;DHT22;14378;51.796;5.808;2023-06-22T03:05:47;20.00;99.90
26803;DHT22;14378;51.796;5.808;2023-06-22T03:07:49;20.00;99.90
26803;DHT22;14378;51.796;5.808;2023-06-22T03:09:51;20.00;99.90
26803;DHT22;14378;51.796;5.808;2023-06-22T03:11:52;20.00;99.90
26803;DHT22;14378;51.796;5.808;2023-06-22T03:13:55;19.90;99.90
26803;DHT22;14378;51.796;5.808;2023-06-22T03:15:57;20.00;99.90
26803;DHT22;14378;51.796;5.808;2023-06-22T03:17:58;19.90;99.90
26803;DHT22;14378;51.796;5.808;2023-06-22T03:19:59;19.90;99.90
26803;DHT22;14378;51.796;5.808;2023-06-22T03:22:00;19.90;99.90
26803;DHT22;14378;51.796;5.808;2023-06-22T03:24:01;19.90;99.90
26803;DHT22;14378;51.796;5.808;2023-06-22T03:26:03;19.90;99.90
26803;DHT22;14378;51.796;5.808;2023-06-22T03:28:05;19.80;99.90
26803;DHT22;14378;51.796;5.808;2023-06-22T03:30:08;19.80;99.90
26803;DHT22;14378;51.796;5.808;2023-06-22T03:32:09;19.80;99.90
26803;DHT22;14378;51.796;5.808;2023-06-22T03:34:10;19.80;99.90
26803;DHT22;14378;51.796;5.808;2023-06-22T03:36:14;19.80;99.90
26803;DHT22;14378;51.796;5.808;2023-06-22T03:38:19;19.80;99.90
26803;DHT22;14378;51.796;5.808;2023-06-22T03:40:23;19.80;99.90
26803;DHT22;14378;51.796;5.808;2023-06-22T03:42:26;19.80;99.90
26803;DHT22;14378;51.796;5.808;2023-06-22T03:44:26;19.70;99.90
26803;DHT22;14378;51.796;5.808;2023-06-22T03:46:28;19.70;99.90
26803;DHT22;14378;51.796;5.808;2023-06-22T03:48:29;19.70;99.90
26803;DHT22;14378;51.796;5.808;2023-06-22T03:50:34;19.70;99.90
26803;DHT22;14378;51.796;5.808;2023-06-22T03:52:35;19.60;99.90
26803;DHT22;14378;51.796;5.808;2023-06-22T03:54:39;19.70;99.90
26803;DHT22;14378;51.796;5.808;2023-06-22T03:56:40;19.70;99.90
26803;DHT22;14378;51.796;5.808;2023-06-22T03:58:47;19.70;99.90
26803;DHT22;14378;51.796;5.808;2023-06-22T04:00:49;19.70;99.90
26803;DHT22;14378;51.796;5.808;2023-06-22T04:02:50;19.60;99.90
26803;DHT22;14378;51.796;5.808;2023-06-22T04:04:52;19.60;99.90
26803;DHT22;14378;51.796;5.808;2023-06-22T04:06:53;19.60;99.90
26803;DHT22;14378;51.796;5.808;2023-06-22T04:08:54;19.70;99.90
26803;DHT22;14378;51.796;5.808;2023-06-22T04:10:55;19.70;99.90
26803;DHT22;14378;51.796;5.808;2023-06-22T04:12:56;19.60;99.90
26803;DHT22;14378;51.796;5.808;2023-06-22T04:14:57;19.70;99.90
26803;DHT22;14378;51.796;5.808;2023-06-22T04:16:58;19.70;99.90
26803;DHT22;14378;51.796;5.808;2023-06-22T04:18:59;19.70;99.90
26803;DHT22;14378;51.796;5.808;2023-06-22T04:21:01;19.70;99.90
26803;DHT22;14378;51.796;5.808;2023-06-22T04:23:02;19.70;99.90
26803;DHT22;14378;51.796;5.808;2023-06-22T04:25:05;19.70;99.90
26803;DHT22;14378;51.796;5.808;2023-06-22T04:27:08;19.70;99.90
26803;DHT22;14378;51.796;5.808;2023-06-22T04:29:09;19.60;99.90
26803;DHT22;14378;51.796;5.808;2023-06-22T04:31:10;19.70;99.90
26803;DHT22;14378;51.796;5.808;2023-06-22T04:33:17;19.70;99.90
26803;DHT22;14378;51.796;5.808;2023-06-22T04:35:18;19.70;99.90
26803;DHT22;14378;51.796;5.808;2023-06-22T04:37:19;19.80;99.90
26803;DHT22;14378;51.796;5.808;2023-06-22T04:39:25;19.70;99.90
26803;DHT22;14378;51.796;5.808;2023-06-22T04:41:28;19.80;99.90
26803;DHT22;14378;51.796;5.808;2023-06-22T04:43:29;19.80;99.90
26803;DHT22;14378;51.796;5.808;2023-06-22T04:45:36;19.80;99.90
26803;DHT22;14378;51.796;5.808;2023-06-22T04:47:40;19.80;99.90
26803;DHT22;14378;51.796;5.808;2023-06-22T04:49:50;19.80;99.90
26803;DHT22;14378;51.796;5.808;2023-06-22T04:51:55;19.80;99.90
26803;DHT22;14378;51.796;5.808;2023-06-22T04:53:56;19.90;99.90
26803;DHT22;14378;51.796;5.808;2023-06-22T04:56:01;19.90;99.90
26803;DHT22;14378;51.796;5.808;2023-06-22T04:58:05;19.90;99.90
26803;DHT22;14378;51.796;5.808;2023-06-22T05:00:06;19.90;99.90
26803;DHT22;14378;51.796;5.808;2023-06-22T05:02:14;20.00;99.90
26803;DHT22;14378;51.796;5.808;2023-06-22T05:04:15;19.90;99.90
26803;DHT22;14378;51.796;5.808;2023-06-22T05:06:17;20.00;99.90
26803;DHT22;14378;51.796;5.808;2023-06-22T05:08:18;20.00;99.90
26803;DHT22;14378;51.796;5.808;2023-06-22T05:10:22;20.00;99.90
26803;DHT22;14378;51.796;5.808;2023-06-22T05:12:23;20.00;99.90
26803;DHT22;14378;51.796;5.808;2023-06-22T05:14:25;20.10;99.90
26803;DHT22;14378;51.796;5.808;2023-06-22T05:16:26;20.10;99.90
26803;DHT22;14378;51.796;5.808;2023-06-22T05:18:35;20.10;99.90
26803;DHT22;14378;51.796;5.808;2023-06-22T05:20:40;20.20;99.90
26803;DHT22;14378;51.796;5.808;2023-06-22T05:22:41;20.20;99.90
26803;DHT22;14378;51.796;5.808;2023-06-22T05:24:45;20.30;99.90
26803;DHT22;14378;51.796;5.808;2023-06-22T05:26:47;20.30;99.90
26803;DHT22;14378;51.796;5.808;2023-06-22T05:28:48;20.30;99.90
26803;DHT22;14378;51.796;5.808;2023-06-22T05:30:50;20.40;99.90
26803;DHT22;14378;51.796;5.808;2023-06-22T05:32:51;20.40;99.90
26803;DHT22;14378;51.796;5.808;2023-06-22T05:34:53;20.40;99.90
26803;DHT22;14378;51.796;5.808;2023-06-22T05:36:54;20.50;99.90
26803;DHT22;14378;51.796;5.808;2023-06-22T05:38:57;20.50;99.90
26803;DHT22;14378;51.796;5.808;2023-06-22T05:40:59;20.60;99.90
26803;DHT22;14378;51.796;5.808;2023-06-22T05:43:00;20.60;99.90
26803;DHT22;14378;51.796;5.808;2023-06-22T05:45:02;20.60;99.90
26803;DHT22;14378;51.796;5.808;2023-06-22T05:47:04;20.60;99.90
26803;DHT22;14378;51.796;5.808;2023-06-22T05:49:05;20.70;99.90
26803;DHT22;14378;51.796;5.808;2023-06-22T05:51:06;20.70;99.90
26803;DHT22;14378;51.796;5.808;2023-06-22T05:53:07;20.80;99.90
26803;DHT22;14378;51.796;5.808;2023-06-22T05:55:08;20.80;99.90
26803;DHT22;14378;51.796;5.808;2023-06-22T05:57:09;20.80;99.90
26803;DHT22;14378;51.796;5.808;2023-06-22T05:59:10;20.90;99.90
26803;DHT22;14378;51.796;5.808;2023-06-22T06:01:11;20.90;99.90
26803;DHT22;14378;51.796;5.808;2023-06-22T06:03:12;21.00;99.90
26803;DHT22;14378;51.796;5.808;2023-06-22T06:05:18;21.10;99.90
26803;DHT22;14378;51.796;5.808;2023-06-22T06:07:20;21.10;99.90
26803;DHT22;14378;51.796;5.808;2023-06-22T06:09:21;21.20;99.90
26803;DHT22;14378;51.796;5.808;2023-06-22T06:11:26;21.30;99.90
26803;DHT22;14378;51.796;5.808;2023-06-22T06:13:27;21.40;99.90
26803;DHT22;14378;51.796;5.808;2023-06-22T06:15:28;21.50;99.90
26803;DHT22;14378;51.796;5.808;2023-06-22T06:17:29;21.60;99.90
26803;DHT22;14378;51.796;5.808;2023-06-22T06:19:30;21.70;99.90
26803;DHT22;14378;51.796;5.808;2023-06-22T06:21:32;21.80;99.90
26803;DHT22;14378;51.796;5.808;2023-06-22T06:23:33;21.90;99.90
26803;DHT22;14378;51.796;5.808;2023-06-22T06:25:39;21.90;99.90
26803;DHT22;14378;51.796;5.808;2023-06-22T06:27:40;22.00;99.90
26803;DHT22;14378;51.796;5.808;2023-06-22T06:29:41;22.10;99.90
26803;DHT22;14378;51.796;5.808;2023-06-22T06:31:42;22.20;99.90
26803;DHT22;14378;51.796;5.808;2023-06-22T06:33:47;22.30;99.90
26803;DHT22;14378;51.796;5.808;2023-06-22T06:35:48;22.40;99.90
26803;DHT22;14378;51.796;5.808;2023-06-22T06:37:50;22.50;99.90
26803;DHT22;14378;51.796;5.808;2023-06-22T06:39:51;22.50;99.90
26803;DHT22;14378;51.796;5.808;2023-06-22T06:41:52;22.60;99.90
26803;DHT22;14378;51.796;5.808;2023-06-22T06:43:54;22.70;99.90
26803;DHT22;14378;51.796;5.808;2023-06-22T06:45:55;22.80;99.90
26803;DHT22;14378;51.796;5.808;2023-06-22T06:47:56;22.90;99.90
26803;DHT22;14378;51.796;5.808;2023-06-22T06:49:57;22.90;99.90
26803;DHT22;14378;51.796;5.808;2023-06-22T06:51:58;23.00;99.90
26803;DHT22;14378;51.796;5.808;2023-06-22T06:53:59;23.10;99.90
26803;DHT22;14378;51.796;5.808;2023-06-22T06:56:00;23.20;99.90
26803;DHT22;14378;51.796;5.808;2023-06-22T06:58:02;23.20;99.90
26803;DHT22;14378;51.796;5.808;2023-06-22T07:00:12;23.30;99.90
26803;DHT22;14378;51.796;5.808;2023-06-22T07:02:19;23.40;99.90
26803;DHT22;14378;51.796;5.808;2023-06-22T07:04:21;23.40;99.90
26803;DHT22;14378;51.796;5.808;2023-06-22T07:06:22;23.60;99.90
26803;DHT22;14378;51.796;5.808;2023-06-22T07:08:23;23.60;99.90
26803;DHT22;14378;51.796;5.808;2023-06-22T07:10:24;23.70;99.90
26803;DHT22;14378;51.796;5.808;2023-06-22T07:12:25;23.80;99.90
26803;DHT22;14378;51.796;5.808;2023-06-22T07:14:26;23.80;99.90
26803;DHT22;14378;51.796;5.808;2023-06-22T07:16:27;23.90;99.90
26803;DHT22;14378;51.796;5.808;2023-06-22T07:18:29;24.00;99.90
26803;DHT22;14378;51.796;5.808;2023-06-22T07:20:30;24.00;99.90
26803;DHT22;14378;51.796;5.808;2023-06-22T07:22:31;24.10;99.90
26803;DHT22;14378;51.796;5.808;2023-06-22T07:24:32;24.10;99.90
26803;DHT22;14378;51.796;5.808;2023-06-22T07:26:33;24.20;99.90
26803;DHT22;14378;51.796;5.808;2023-06-22T07:28:34;24.20;99.90
26803;DHT22;14378;51.796;5.808;2023-06-22T07:30:39;24.20;99.90
26803;DHT22;14378;51.796;5.808;2023-06-22T07:32:40;24.30;99.90
26803;DHT22;14378;51.796;5.808;2023-06-22T07:34:50;24.30;99.90
26803;DHT22;14378;51.796;5.808;2023-06-22T07:36:51;24.30;99.90
26803;DHT22;14378;51.796;5.808;2023-06-22T07:38:52;24.40;99.90
26803;DHT22;14378;51.796;5.808;2023-06-22T07:40:54;24.40;99.90
26803;DHT22;14378;51.796;5.808;2023-06-22T07:42:56;24.50;99.90
26803;DHT22;14378;51.796;5.808;2023-06-22T07:44:58;24.50;99.90
26803;DHT22;14378;51.796;5.808;2023-06-22T07:47:03;24.50;99.90
26803;DHT22;14378;51.796;5.808;2023-06-22T07:49:04;24.60;99.90
26803;DHT22;14378;51.796;5.808;2023-06-22T07:51:05;24.60;99.90
26803;DHT22;14378;51.796;5.808;2023-06-22T07:53:07;24.60;99.90
26803;DHT22;14378;51.796;5.808;2023-06-22T07:55:08;24.60;99.90
26803;DHT22;14378;51.796;5.808;2023-06-22T07:57:09;24.70;99.90
26803;DHT22;14378;51.796;5.808;2023-06-22T07:59:10;24.70;99.90
26803;DHT22;14378;51.796;5.808;2023-06-22T08:01:12;24.70;99.90
26803;DHT22;14378;51.796;5.808;2023-06-22T08:03:19;24.70;99.90
26803;DHT22;14378;51.796;5.808;2023-06-22T08:05:20;24.80;99.90
26803;DHT22;14378;51.796;5.808;2023-06-22T08:07:22;24.80;99.90
26803;DHT22;14378;51.796;5.808;2023-06-22T08:09:23;24.90;99.90
26803;DHT22;14378;51.796;5.808;2023-06-22T08:11:27;24.90;99.90
26803;DHT22;14378;51.796;5.808;2023-06-22T08:13:29;24.90;99.90
26803;DHT22;14378;51.796;5.808;2023-06-22T08:15:30;25.00;99.90
26803;DHT22;14378;51.796;5.808;2023-06-22T08:17:32;25.10;99.90
26803;DHT22;14378;51.796;5.808;2023-06-22T08:19:32;25.10;99.90
26803;DHT22;14378;51.796;5.808;2023-06-22T08:21:33;25.10;99.90
26803;DHT22;14378;51.796;5.808;2023-06-22T08:23:34;25.20;99.90
26803;DHT22;14378;51.796;5.808;2023-06-22T08:25:36;25.30;99.90
26803;DHT22;14378;51.796;5.808;2023-06-22T08:27:38;25.40;99.90
26803;DHT22;14378;51.796;5.808;2023-06-22T08:29:39;25.40;99.90
26803;DHT22;14378;51.796;5.808;2023-06-22T08:31:45;25.50;99.90
26803;DHT22;14378;51.796;5.808;2023-06-22T08:33:46;25.50;99.90
26803;DHT22;14378;51.796;5.808;2023-06-22T08:35:47;25.70;99.90
26803;DHT22;14378;51.796;5.808;2023-06-22T08:37:49;25.80;99.90
26803;DHT22;14378;51.796;5.808;2023-06-22T08:40:04;25.90;99.90
26803;DHT22;14378;51.796;5.808;2023-06-22T08:42:20;26.00;99.90
26803;DHT22;14378;51.796;5.808;2023-06-22T08:44:21;26.10;99.90
26803;DHT22;14378;51.796;5.808;2023-06-22T08:46:22;26.30;99.90
26803;DHT22;14378;51.796;5.808;2023-06-22T08:48:30;26.40;99.90
26803;DHT22;14378;51.796;5.808;2023-06-22T08:50:31;26.50;99.90
26803;DHT22;14378;51.796;5.808;2023-06-22T08:52:33;26.60;99.90
26803;DHT22;14378;51.796;5.808;2023-06-22T08:54:35;26.70;99.90
26803;DHT22;14378;51.796;5.808;2023-06-22T08:56:36;26.90;99.90
26803;DHT22;14378;51.796;5.808;2023-06-22T08:58:38;27.00;99.90
26803;DHT22;14378;51.796;5.808;2023-06-22T09:00:39;27.10;99.90
26803;DHT22;14378;51.796;5.808;2023-06-22T09:02:40;27.20;99.90
26803;DHT22;14378;51.796;5.808;2023-06-22T09:04:49;27.30;99.90
26803;DHT22;14378;51.796;5.808;2023-06-22T09:06:56;27.40;99.90
26803;DHT22;14378;51.796;5.808;2023-06-22T09:08:57;27.40;99.90
26803;DHT22;14378;51.796;5.808;2023-06-22T09:11:01;27.50;99.90
26803;DHT22;14378;51.796;5.808;2023-06-22T09:13:03;27.50;99.80
26803;DHT22;14378;51.796;5.808;2023-06-22T09:15:05;27.60;99.90
26803;DHT22;14378;51.796;5.808;2023-06-22T09:17:08;27.70;99.80
26803;DHT22;14378;51.796;5.808;2023-06-22T09:19:09;27.70;99.50
26803;DHT22;14378;51.796;5.808;2023-06-22T09:21:10;27.80;99.10
26803;DHT22;14378;51.796;5.808;2023-06-22T09:23:11;27.80;99.30
26803;DHT22;14378;51.796;5.808;2023-06-22T09:25:12;27.90;99.50
26803;DHT22;14378;51.796;5.808;2023-06-22T09:27:19;28.00;99.70
26803;DHT22;14378;51.796;5.808;2023-06-22T09:29:20;27.90;99.30
26803;DHT22;14378;51.796;5.808;2023-06-22T09:31:21;27.90;98.60
26803;DHT22;14378;51.796;5.808;2023-06-22T09:33:26;28.00;98.40
26803;DHT22;14378;51.796;5.808;2023-06-22T09:35:27;28.00;98.80
26803;DHT22;14378;51.796;5.808;2023-06-22T09:37:32;28.00;99.50
26803;DHT22;14378;51.796;5.808;2023-06-22T09:39:33;28.00;99.40
26803;DHT22;14378;51.796;5.808;2023-06-22T09:41:34;27.90;99.10
26803;DHT22;14378;51.796;5.808;2023-06-22T09:43:35;27.90;99.40
26803;DHT22;14378;51.796;5.808;2023-06-22T09:45:38;27.80;98.80
26803;DHT22;14378;51.796;5.808;2023-06-22T09:47:39;27.80;98.80
26803;DHT22;14378;51.796;5.808;2023-06-22T09:49:40;27.70;98.60
26803;DHT22;14378;51.796;5.808;2023-06-22T09:51:41;27.70;98.80
26803;DHT22;14378;51.796;5.808;2023-06-22T09:53:43;27.60;98.90
26803;DHT22;14378;51.796;5.808;2023-06-22T09:55:48;27.60;98.90
26803;DHT22;14378;51.796;5.808;2023-06-22T09:57:49;27.50;98.90
26803;DHT22;14378;51.796;5.808;2023-06-22T09:59:50;27.50;98.90
26803;DHT22;14378;51.796;5.808;2023-06-22T10:01:51;27.40;98.70
26803;DHT22;14378;51.796;5.808;2023-06-22T10:03:52;27.30;98.50
26803;DHT22;14378;51.796;5.808;2023-06-22T10:05:57;27.20;98.20
26803;DHT22;14378;51.796;5.808;2023-06-22T10:07:58;27.20;98.50
26803;DHT22;14378;51.796;5.808;2023-06-22T10:10:00;27.10;98.20
26803;DHT22;14378;51.796;5.808;2023-06-22T10:12:03;27.10;98.40
26803;DHT22;14378;51.796;5.808;2023-06-22T10:14:05;27.00;98.50
26803;DHT22;14378;51.796;5.808;2023-06-22T10:16:05;27.00;98.50
26803;DHT22;14378;51.796;5.808;2023-06-22T10:18:07;26.90;98.60
26803;DHT22;14378;51.796;5.808;2023-06-22T10:20:09;26.90;98.70
26803;DHT22;14378;51.796;5.808;2023-06-22T10:22:14;26.80;98.60
26803;DHT22;14378;51.796;5.808;2023-06-22T10:24:15;26.70;98.70
26803;DHT22;14378;51.796;5.808;2023-06-22T10:26:19;26.70;98.70
26803;DHT22;14378;51.796;5.808;2023-06-22T10:28:20;26.60;98.50
26803;DHT22;14378;51.796;5.808;2023-06-22T10:30:21;26.50;98.40
26803;DHT22;14378;51.796;5.808;2023-06-22T10:32:22;26.50;98.30
26803;DHT22;14378;51.796;5.808;2023-06-22T10:34:23;26.40;98.30
26803;DHT22;14378;51.796;5.808;2023-06-22T10:36:24;26.40;98.50
26803;DHT22;14378;51.796;5.808;2023-06-22T10:38:25;26.30;98.70
26803;DHT22;14378;51.796;5.808;2023-06-22T10:40:26;26.30;98.80
26803;DHT22;14378;51.796;5.808;2023-06-22T10:42:29;26.30;98.80
26803;DHT22;14378;51.796;5.808;2023-06-22T10:44:30;26.30;99.00
26803;DHT22;14378;51.796;5.808;2023-06-22T10:46:31;26.30;99.00
26803;DHT22;14378;51.796;5.808;2023-06-22T10:48:32;26.20;98.50
26803;DHT22;14378;51.796;5.808;2023-06-22T10:50:33;26.20;98.90
26803;DHT22;14378;51.796;5.808;2023-06-22T10:52:34;26.20;98.90
26803;DHT22;14378;51.796;5.808;2023-06-22T10:54:36;26.20;98.90
26803;DHT22;14378;51.796;5.808;2023-06-22T10:56:40;26.10;98.90
26803;DHT22;14378;51.796;5.808;2023-06-22T10:58:41;26.10;98.80
26803;DHT22;14378;51.796;5.808;2023-06-22T11:00:45;26.10;99.10
26803;DHT22;14378;51.796;5.808;2023-06-22T11:02:47;26.00;99.40
26803;DHT22;14378;51.796;5.808;2023-06-22T11:04:48;25.90;99.30
26803;DHT22;14378;51.796;5.808;2023-06-22T11:06:49;25.90;99.50
26803;DHT22;14378;51.796;5.808;2023-06-22T11:08:50;25.80;99.60
26803;DHT22;14378;51.796;5.808;2023-06-22T11:10:51;25.80;99.30
26803;DHT22;14378;51.796;5.808;2023-06-22T11:12:53;25.80;99.30
26803;DHT22;14378;51.796;5.808;2023-06-22T11:14:56;25.80;99.60
26803;DHT22;14378;51.796;5.808;2023-06-22T11:16:57;25.80;99.70
26803;DHT22;14378;51.796;5.808;2023-06-22T11:18:58;25.80;99.80
26803;DHT22;14378;51.796;5.808;2023-06-22T11:20:59;25.70;99.90
26803;DHT22;14378;51.796;5.808;2023-06-22T11:23:00;25.70;99.90
26803;DHT22;14378;51.796;5.808;2023-06-22T11:25:04;25.60;99.90
26803;DHT22;14378;51.796;5.808;2023-06-22T11:27:06;25.50;99.90
26803;DHT22;14378;51.796;5.808;2023-06-22T11:29:07;25.40;99.90
26803;DHT22;14378;51.796;5.808;2023-06-22T11:31:09;25.40;99.90
26803;DHT22;14378;51.796;5.808;2023-06-22T11:33:10;25.30;99.90
26803;DHT22;14378;51.796;5.808;2023-06-22T11:35:11;25.30;99.90
26803;DHT22;14378;51.796;5.808;2023-06-22T11:37:12;25.20;99.90
26803;DHT22;14378;51.796;5.808;2023-06-22T11:39:14;25.10;99.90
26803;DHT22;14378;51.796;5.808;2023-06-22T11:41:15;25.10;99.90
26803;DHT22;14378;51.796;5.808;2023-06-22T11:43:17;24.90;99.90
26803;DHT22;14378;51.796;5.808;2023-06-22T11:45:18;24.90;99.90
26803;DHT22;14378;51.796;5.808;2023-06-22T11:47:21;24.80;99.90
26803;DHT22;14378;51.796;5.808;2023-06-22T11:49:22;24.70;99.90
26803;DHT22;14378;51.796;5.808;2023-06-22T11:51:23;24.60;99.90
26803;DHT22;14378;51.796;5.808;2023-06-22T11:53:25;24.60;99.90
26803;DHT22;14378;51.796;5.808;2023-06-22T11:55:26;24.50;99.90
26803;DHT22;14378;51.796;5.808;2023-06-22T11:57:29;24.40;99.90
26803;DHT22;14378;51.796;5.808;2023-06-22T11:59:30;24.30;99.90
26803;DHT22;14378;51.796;5.808;2023-06-22T12:01:31;24.30;99.90
26803;DHT22;14378;51.796;5.808;2023-06-22T12:03:34;24.20;99.90
26803;DHT22;14378;51.796;5.808;2023-06-22T12:05:36;24.10;99.90
26803;DHT22;14378;51.796;5.808;2023-06-22T12:07:37;24.00;99.90
26803;DHT22;14378;51.796;5.808;2023-06-22T12:09:38;24.00;99.90
26803;DHT22;14378;51.796;5.808;2023-06-22T12:11:40;24.00;99.90
26803;DHT22;14378;51.796;5.808;2023-06-22T12:13:41;23.90;99.90
26803;DHT22;14378;51.796;5.808;2023-06-22T12:15:42;23.80;99.90
26803;DHT22;14378;51.796;5.808;2023-06-22T12:17:44;23.80;99.90
26803;DHT22;14378;51.796;5.808;2023-06-22T12:19:46;23.70;99.90
26803;DHT22;14378;51.796;5.808;2023-06-22T12:21:47;23.60;99.90
26803;DHT22;14378;51.796;5.808;2023-06-22T12:23:52;23.60;99.90
26803;DHT22;14378;51.796;5.808;2023-06-22T12:25:53;23.60;99.90
26803;DHT22;14378;51.796;5.808;2023-06-22T12:27:54;23.50;99.90
26803;DHT22;14378;51.796;5.808;2023-06-22T12:29:56;23.50;99.90
26803;DHT22;14378;51.796;5.808;2023-06-22T12:31:57;23.50;99.90
26803;DHT22;14378;51.796;5.808;2023-06-22T12:33:58;23.40;99.90
26803;DHT22;14378;51.796;5.808;2023-06-22T12:35:59;23.40;99.90
26803;DHT22;14378;51.796;5.808;2023-06-22T12:38:00;23.30;99.90
26803;DHT22;14378;51.796;5.808;2023-06-22T12:40:03;23.30;99.90
26803;DHT22;14378;51.796;5.808;2023-06-22T12:42:04;23.30;99.90
26803;DHT22;14378;51.796;5.808;2023-06-22T12:44:10;23.30;99.90
26803;DHT22;14378;51.796;5.808;2023-06-22T12:46:11;23.20;99.90
26803;DHT22;14378;51.796;5.808;2023-06-22T12:48:16;23.20;99.90
26803;DHT22;14378;51.796;5.808;2023-06-22T12:50:17;23.20;99.90
26803;DHT22;14378;51.796;5.808;2023-06-22T12:52:18;23.20;99.90
26803;DHT22;14378;51.796;5.808;2023-06-22T12:54:19;23.10;99.90
26803;DHT22;14378;51.796;5.808;2023-06-22T12:56:20;23.10;99.90
26803;DHT22;14378;51.796;5.808;2023-06-22T12:58:21;23.00;99.90
26803;DHT22;14378;51.796;5.808;2023-06-22T13:00:25;23.00;99.90
26803;DHT22;14378;51.796;5.808;2023-06-22T13:02:26;23.00;99.90
26803;DHT22;14378;51.796;5.808;2023-06-22T13:04:27;23.00;99.90